Time;durP1;ratioP1;P1;durP2;ratioP2;P2;SDS_P1;SDS_P2;PMS_P1;PMS_P2;Temp;Humidity;BMP_temperature;BMP_pressure;BME280_temperature;BME280_humidity;BME280_pressure;Samples;Min_cycle;Max_cycle;Signal;HPM_P1;HPM_P2
2024/01/16 00:01:36;;;;;;;;;;;0.40;1.00;;;;;;5048616;28;19909;-75
2024/01/16 00:07:32;;;;;;;;;;;0.40;1.00;;;;;;5049909;28;19931;-76
2024/01/16 00:13:00;;;;;;;;;;;0.30;1.00;;;;;;5046055;28;19920;-76
2024/01/16 00:16:01;;;;;;;;;;;0.30;1.00;;;;;;5050239;28;19908;-76
2024/01/16 00:18:51;;;;;;;;;;;0.20;1.00;;;;;;5048511;28;19904;-76
2024/01/16 00:21:18;;;;;;;;;;;0.20;1.00;;;;;;5045723;28;19920;-76
2024/01/16 00:24:07;;;;;;;;;;;0.20;1.00;;;;;;5045729;28;19909;-78
2024/01/16 00:29:37;;;;;;;;;;;0.40;1.00;;;;;;5042183;28;20285;-78
2024/01/16 00:32:03;;;;;;;;;;;0.50;1.00;;;;;;5062977;28;19909;-77
2024/01/16 00:34:30;;;;;;;;;;;0.50;1.00;;;;;;5036489;28;19959;-77
2024/01/16 00:36:56;;;;;;;;;;;0.50;1.00;;;;;;5044896;28;19952;-78
2024/01/16 00:39:22;;;;;;;;;;;0.50;1.00;;;;;;5046196;28;19936;-77
2024/01/16 00:42:01;;;;;;;;;;;0.50;1.00;;;;;;5045041;28;19961;-76
2024/01/16 00:47:30;;;;;;;;;;;0.50;1.00;;;;;;5045593;28;19955;-76
2024/01/16 00:50:07;;;;;;;;;;;0.40;1.00;;;;;;5049604;28;19909;-75
2024/01/16 00:52:36;;;;;;;;;;;0.40;1.00;;;;;;5039613;28;20267;-75
2024/01/16 00:55:13;;;;;;;;;;;0.40;1.00;;;;;;5043504;28;19904;-76
2024/01/16 01:00:41;;;;;;;;;;;0.30;1.00;;;;;;5048226;28;20438;-76
2024/01/16 01:03:13;;;;;;;;;;;0.20;1.00;;;;;;5047544;28;19905;-76
2024/01/16 01:05:48;;;;;;;;;;;0.20;1.00;;;;;;5048879;28;20043;-76
2024/01/16 01:08:18;;;;;;;;;;;0.20;1.00;;;;;;5037995;28;19916;-77
2024/01/16 01:13:49;;;;;;;;;;;0.10;1.00;;;;;;5042756;28;19916;-77
2024/01/16 01:16:14;;;;;;;;;;;0.10;1.00;;;;;;5051569;28;19999;-77
2024/01/16 01:18:51;;;;;;;;;;;0.10;1.00;;;;;;5042764;28;19964;-77
2024/01/16 01:21:30;;;;;;;;;;;0.20;1.00;;;;;;5048434;28;19962;-77
2024/01/16 01:27:01;;;;;;;;;;;0.20;1.00;;;;;;5044326;28;19915;-76
2024/01/16 01:29:37;;;;;;;;;;;0.20;1.00;;;;;;5046734;28;19904;-76
2024/01/16 01:32:37;;;;;;;;;;;0.30;1.00;;;;;;5048638;28;19912;-76
2024/01/16 01:35:14;;;;;;;;;;;0.30;1.00;;;;;;5047181;28;19905;-75
2024/01/16 01:37:54;;;;;;;;;;;0.30;1.00;;;;;;5037851;28;19957;-76
2024/01/16 01:40:37;;;;;;;;;;;0.30;1.00;;;;;;5045063;28;19917;-75
2024/01/16 01:46:24;;;;;;;;;;;0.30;1.00;;;;;;5048235;28;20280;-76
2024/01/16 01:51:54;;;;;;;;;;;0.40;1.00;;;;;;5042366;28;19918;-75
2024/01/16 02:00:37;;;;;;;;;;;0.40;1.00;;;;;;5049357;28;20385;-77
2024/01/16 02:03:25;;;;;;;;;;;0.40;1.00;;;;;;5037552;28;19963;-77
2024/01/16 02:09:01;;;;;;;;;;;0.50;1.00;;;;;;5040572;28;19959;-76
2024/01/16 02:11:31;;;;;;;;;;;0.60;1.00;;;;;;5039004;28;19916;-75
2024/01/16 02:14:07;;;;;;;;;;;0.70;1.00;;;;;;5040581;28;19909;-76
2024/01/16 02:19:35;;;;;;;;;;;0.70;1.00;;;;;;5046418;28;19962;-76
2024/01/16 02:22:04;;;;;;;;;;;0.70;1.00;;;;;;5051500;28;19913;-76
2024/01/16 02:30:35;;;;;;;;;;;0.60;1.00;;;;;;5054541;28;20272;-77
2024/01/16 02:33:01;;;;;;;;;;;0.50;1.00;;;;;;5062121;28;19917;-77
2024/01/16 02:38:41;;;;;;;;;;;0.50;1.00;;;;;;5049051;28;19915;-77
2024/01/16 02:41:07;;;;;;;;;;;0.40;1.00;;;;;;5048181;28;19913;-75
2024/01/16 02:43:43;;;;;;;;;;;0.30;1.00;;;;;;5045016;28;19915;-76
2024/01/16 02:49:11;;;;;;;;;;;0.30;1.00;;;;;;5045906;28;19916;-76
2024/01/16 02:57:43;;;;;;;;;;;0.50;1.00;;;;;;5046542;28;19912;-76
2024/01/16 03:06:24;;;;;;;;;;;0.50;1.00;;;;;;5039816;28;19916;-76
2024/01/16 03:14:56;;;;;;;;;;;0.60;1.00;;;;;;5034702;28;19915;-78
2024/01/16 03:17:37;;;;;;;;;;;0.60;1.00;;;;;;5034906;28;19999;-77
2024/01/16 03:23:23;;;;;;;;;;;0.60;1.00;;;;;;5042811;28;19920;-77
2024/01/16 03:28:52;;;;;;;;;;;0.50;1.00;;;;;;5049104;28;19911;-77
2024/01/16 03:34:20;;;;;;;;;;;0.50;1.00;;;;;;5050342;28;19912;-77
2024/01/16 03:39:50;;;;;;;;;;;0.50;1.00;;;;;;5041322;28;19928;-76
2024/01/16 03:42:31;;;;;;;;;;;0.50;1.00;;;;;;5041105;28;19916;-75
2024/01/16 03:47:59;;;;;;;;;;;0.30;1.00;;;;;;5043960;28;19951;-76
2024/01/16 03:53:28;;;;;;;;;;;0.20;1.00;;;;;;5051108;28;19919;-76
2024/01/16 03:56:18;;;;;;;;;;;0.10;1.00;;;;;;5045407;28;19991;-76
2024/01/16 03:59:01;;;;;;;;;;;0.20;1.00;;;;;;5052248;28;19905;-76
2024/01/16 04:04:31;;;;;;;;;;;0.10;1.00;;;;;;5037501;28;20054;-76
2024/01/16 04:07:13;;;;;;;;;;;0.10;1.00;;;;;;5045526;28;19912;-76
2024/01/16 04:09:38;;;;;;;;;;;-0.10;1.00;;;;;;5045207;28;19916;-76
2024/01/16 04:12:19;;;;;;;;;;;-0.10;1.00;;;;;;5046604;28;19964;-76
2024/01/16 04:14:49;;;;;;;;;;;-0.20;1.00;;;;;;5054581;28;19909;-76
2024/01/16 04:17:49;;;;;;;;;;;-0.20;1.00;;;;;;5038216;28;19909;-76
2024/01/16 04:23:17;;;;;;;;;;;-0.40;1.00;;;;;;5035958;28;19915;-76
2024/01/16 04:26:01;;;;;;;;;;;-0.40;1.00;;;;;;5048790;28;19909;-76
2024/01/16 04:28:31;;;;;;;;;;;-0.40;1.00;;;;;;5046784;28;20241;-76
2024/01/16 04:30:56;;;;;;;;;;;-0.50;1.00;;;;;;5039442;28;19909;-75
2024/01/16 04:33:22;;;;;;;;;;;-0.50;1.00;;;;;;5045275;28;19915;-76
2024/01/16 04:36:01;;;;;;;;;;;-0.40;1.00;;;;;;5040789;28;19927;-76
2024/01/16 04:38:26;;;;;;;;;;;-0.40;1.00;;;;;;5042400;28;19913;-76
2024/01/16 04:43:55;;;;;;;;;;;-0.50;1.00;;;;;;5035912;28;19916;-77
2024/01/16 04:46:20;;;;;;;;;;;-0.50;1.00;;;;;;5048343;28;20279;-77
2024/01/16 04:51:49;;;;;;;;;;;-0.50;1.00;;;;;;5046089;28;19920;-77
2024/01/16 04:54:14;;;;;;;;;;;-0.40;1.00;;;;;;5043387;28;19909;-77
2024/01/16 04:56:40;;;;;;;;;;;-0.50;1.00;;;;;;5047754;28;20276;-76
2024/01/16 04:59:05;;;;;;;;;;;-0.40;1.00;;;;;;5038985;28;20018;-76
2024/01/16 05:01:31;;;;;;;;;;;-0.40;1.00;;;;;;5042250;28;19982;-76
2024/01/16 05:04:01;;;;;;;;;;;-0.40;1.00;;;;;;5036394;28;19975;-76
2024/01/16 05:06:26;;;;;;;;;;;-0.40;1.00;;;;;;5055450;28;19912;-76
2024/01/16 05:09:01;;;;;;;;;;;-0.40;1.00;;;;;;5036472;28;19905;-76
2024/01/16 05:17:37;;;;;;;;;;;-0.20;1.00;;;;;;5047372;28;19916;-76
2024/01/16 05:20:19;;;;;;;;;;;-0.20;1.00;;;;;;5051534;28;20336;-76
2024/01/16 05:22:49;;;;;;;;;;;-0.20;1.00;;;;;;5046501;28;19959;-76
2024/01/16 05:25:19;;;;;;;;;;;-0.20;1.00;;;;;;5036925;28;19909;-76
2024/01/16 05:27:55;;;;;;;;;;;-0.20;1.00;;;;;;5050800;28;20011;-76
2024/01/16 05:30:32;;;;;;;;;;;-0.20;1.00;;;;;;5049966;28;20326;-76
2024/01/16 05:39:04;;;;;;;;;;;-0.30;1.00;;;;;;5041850;28;20295;-77
2024/01/16 05:41:49;;;;;;;;;;;-0.30;1.00;;;;;;5036916;28;19909;-77
2024/01/16 05:47:17;;;;;;;;;;;-0.30;1.00;;;;;;5037124;28;19915;-77
2024/01/16 05:50:19;;;;;;;;;;;-0.30;1.00;;;;;;5038928;28;19913;-82
2024/01/16 05:53:19;;;;;;;;;;;-0.20;1.00;;;;;;5034457;28;20352;-77
2024/01/16 05:55:49;;;;;;;;;;;-0.20;1.00;;;;;;5048070;28;19990;-76
2024/01/16 05:58:19;;;;;;;;;;;-0.20;1.00;;;;;;5049995;28;19955;-76
2024/01/16 06:00:45;;;;;;;;;;;-0.20;1.00;;;;;;5035494;28;20047;-77
2024/01/16 06:06:19;;;;;;;;;;;-0.20;1.00;;;;;;5046071;28;20452;-77
2024/01/16 06:09:19;;;;;;;;;;;-0.10;1.00;;;;;;5036250;28;19920;-76
2024/01/16 06:11:49;;;;;;;;;;;-0.20;1.00;;;;;;5040941;28;19966;-77
2024/01/16 06:14:21;;;;;;;;;;;-0.20;1.00;;;;;;5034006;28;19959;-77
2024/01/16 06:20:25;;;;;;;;;;;-0.40;1.00;;;;;;5038728;28;19916;-76
2024/01/16 06:29:19;;;;;;;;;;;-0.50;1.00;;;;;;5044753;28;20043;-77
2024/01/16 06:31:49;;;;;;;;;;;-0.70;1.00;;;;;;5034434;28;19956;-77
2024/01/16 06:34:19;;;;;;;;;;;-0.80;1.00;;;;;;5034886;28;19905;-77
2024/01/16 06:37:19;;;;;;;;;;;-0.90;1.00;;;;;;5042492;28;19912;-78
2024/01/16 06:39:44;;;;;;;;;;;-0.90;1.00;;;;;;5046651;28;19913;-77
2024/01/16 06:42:19;;;;;;;;;;;-1.00;1.00;;;;;;5038531;28;19905;-77
2024/01/16 06:45:19;;;;;;;;;;;-1.10;1.00;;;;;;5037988;28;20014;-77
2024/01/16 06:48:19;;;;;;;;;;;-1.20;1.00;;;;;;5042391;28;20355;-77
2024/01/16 06:50:49;;;;;;;;;;;-1.20;1.00;;;;;;5035998;28;19909;-77
2024/01/16 06:53:37;;;;;;;;;;;-1.20;1.00;;;;;;5032478;28;19909;-77
2024/01/16 06:56:19;;;;;;;;;;;-1.20;1.00;;;;;;5047394;28;20337;-77
2024/01/16 07:01:55;;;;;;;;;;;-1.20;1.00;;;;;;5050776;28;19924;-77
2024/01/16 07:04:49;;;;;;;;;;;-1.20;1.00;;;;;;5040368;28;19939;-78
2024/01/16 07:07:19;;;;;;;;;;;-1.20;1.00;;;;;;5042846;28;20346;-78
2024/01/16 07:09:49;;;;;;;;;;;-1.20;1.00;;;;;;5047087;28;20379;-78
2024/01/16 07:12:19;;;;;;;;;;;-1.10;1.00;;;;;;5051087;28;19916;-76
2024/01/16 07:14:44;;;;;;;;;;;-1.10;1.00;;;;;;5053431;28;19995;-76
2024/01/16 07:20:13;;;;;;;;;;;-1.10;1.00;;;;;;5048499;28;19958;-87
2024/01/16 07:22:49;;;;;;;;;;;-1.10;1.00;;;;;;5044798;28;20000;-88
2024/01/16 07:25:49;;;;;;;;;;;-1.10;1.00;;;;;;5048316;28;19905;-88
2024/01/16 07:28:49;;;;;;;;;;;-1.10;1.00;;;;;;5063826;28;19955;-89
2024/01/16 07:31:43;;;;;;;;;;;-1.20;1.00;;;;;;5049751;28;19987;-88
2024/01/16 07:34:31;;;;;;;;;;;-1.10;1.00;;;;;;5052855;28;19920;-88
2024/01/16 07:37:19;;;;;;;;;;;-1.10;1.00;;;;;;5047413;28;19955;-91
2024/01/16 07:40:09;;;;;;;;;;;-1.00;1.00;;;;;;5051805;28;19958;-90
2024/01/16 07:42:35;;;;;;;;;;;-1.00;1.00;;;;;;5044437;28;19913;-89
2024/01/16 07:45:13;;;;;;;;;;;-1.00;1.00;;;;;;5054090;28;20469;-89
2024/01/16 07:50:44;;;;;;;;;;;-0.90;1.00;;;;;;5046149;28;19919;-91
2024/01/16 07:53:43;;;;;;;;;;;-0.90;1.00;;;;;;5047332;28;20383;-90
2024/01/16 07:56:19;;;;;;;;;;;-0.80;1.00;;;;;;5056875;28;19905;-90
2024/01/16 07:58:49;;;;;;;;;;;-0.80;1.00;;;;;;5046653;28;19905;-90
2024/01/16 08:04:49;;;;;;;;;;;-0.70;1.00;;;;;;5050838;28;19911;-90
2024/01/16 08:10:19;;;;;;;;;;;-0.50;1.00;;;;;;5047830;28;19916;-78
2024/01/16 08:12:49;;;;;;;;;;;-0.50;1.00;;;;;;5041558;28;19919;-78
2024/01/16 08:15:14;;;;;;;;;;;-0.40;1.00;;;;;;5036519;28;19905;-77
2024/01/16 08:17:49;;;;;;;;;;;-0.40;1.00;;;;;;5049391;28;20015;-76
2024/01/16 08:20:49;;;;;;;;;;;-0.40;1.00;;;;;;5040618;28;19909;-76
2024/01/16 08:23:21;;;;;;;;;;;-0.40;1.00;;;;;;5043077;28;19909;-76
2024/01/16 08:25:51;;;;;;;;;;;-0.40;1.00;;;;;;5043320;28;19904;-76
2024/01/16 08:28:19;;;;;;;;;;;-0.30;1.00;;;;;;5047699;28;19909;-77
2024/01/16 08:30:49;;;;;;;;;;;-0.10;1.00;;;;;;5054089;28;19915;-77
2024/01/16 08:33:19;;;;;;;;;;;-0.10;1.00;;;;;;5052245;28;19913;-76
2024/01/16 08:36:01;;;;;;;;;;;-0.10;1.00;;;;;;5045094;28;19951;-76
2024/01/16 08:41:49;;;;;;;;;;;0.00;1.00;;;;;;5049134;28;19923;-77
2024/01/16 08:44:19;;;;;;;;;;;-0.10;1.00;;;;;;5048333;28;19946;-77
2024/01/16 08:46:49;;;;;;;;;;;0.10;1.00;;;;;;5042303;28;20417;-77
2024/01/16 08:49:19;;;;;;;;;;;0.10;1.00;;;;;;5042277;28;19905;-78
2024/01/16 08:51:49;;;;;;;;;;;0.20;1.00;;;;;;5043063;28;19958;-77
2024/01/16 08:54:49;;;;;;;;;;;0.30;1.00;;;;;;5042217;28;19905;-77
2024/01/16 08:57:19;;;;;;;;;;;0.60;1.00;;;;;;5053383;28;20003;-77
2024/01/16 08:59:49;;;;;;;;;;;0.50;1.00;;;;;;5035493;28;19916;-77
2024/01/16 09:02:49;;;;;;;;;;;0.50;1.00;;;;;;5036592;28;19940;-77
2024/01/16 09:05:43;;;;;;;;;;;0.50;1.00;;;;;;5055511;28;19912;-77
2024/01/16 09:08:19;;;;;;;;;;;0.50;1.00;;;;;;5036450;28;19915;-76
2024/01/16 09:10:49;;;;;;;;;;;0.50;1.00;;;;;;5038107;28;19909;-80
2024/01/16 09:13:20;;;;;;;;;;;0.70;1.00;;;;;;5035376;28;19959;-79
2024/01/16 09:16:19;;;;;;;;;;;0.60;1.00;;;;;;5037375;28;19991;-78
2024/01/16 09:18:46;;;;;;;;;;;0.70;1.00;;;;;;5036933;28;19999;-77
2024/01/16 09:21:14;;;;;;;;;;;0.60;1.00;;;;;;5042499;28;19947;-77
2024/01/16 09:23:49;;;;;;;;;;;0.70;1.00;;;;;;5044193;28;19936;-78
2024/01/16 09:26:19;;;;;;;;;;;0.70;1.00;;;;;;5046213;28;19920;-85
2024/01/16 09:28:49;;;;;;;;;;;0.80;1.00;;;;;;5050532;28;19912;-82
2024/01/16 09:31:19;;;;;;;;;;;1.00;1.00;;;;;;5058224;28;19997;-82
2024/01/16 09:33:49;;;;;;;;;;;0.80;1.00;;;;;;5038186;28;20418;-76
2024/01/16 09:36:15;;;;;;;;;;;0.80;1.00;;;;;;5040685;28;19956;-78
2024/01/16 09:39:01;;;;;;;;;;;1.00;1.00;;;;;;5038343;28;19909;-76
2024/01/16 09:41:32;;;;;;;;;;;1.00;1.00;;;;;;5041417;28;19912;-78
2024/01/16 09:44:07;;;;;;;;;;;1.10;1.00;;;;;;5043670;28;19919;-81
2024/01/16 09:47:01;;;;;;;;;;;1.20;1.00;;;;;;5040459;28;20308;-81
2024/01/16 09:49:31;;;;;;;;;;;1.40;1.00;;;;;;5034675;28;19905;-82
2024/01/16 09:52:25;;;;;;;;;;;1.30;1.00;;;;;;5046877;28;19913;-83
2024/01/16 10:00:57;;;;;;;;;;;1.60;1.00;;;;;;5034243;28;19927;-77
2024/01/16 10:03:23;;;;;;;;;;;1.70;1.00;;;;;;5043903;28;20387;-77
2024/01/16 10:08:55;;;;;;;;;;;2.10;1.00;;;;;;5053701;28;20419;-77
2024/01/16 10:14:55;;;;;;;;;;;1.90;1.00;;;;;;5037366;28;19950;-75
2024/01/16 10:20:34;;;;;;;;;;;1.90;1.00;;;;;;5039921;28;19979;-75
2024/01/16 10:23:19;;;;;;;;;;;2.10;1.00;;;;;;5050372;28;20074;-75
2024/01/16 10:32:01;;;;;;;;;;;2.10;1.00;;;;;;5048428;28;19962;-77
2024/01/16 10:43:37;;;;;;;;;;;1.90;1.00;;;;;;5043421;28;19928;-76
2024/01/16 10:49:07;;;;;;;;;;;2.20;1.00;;;;;;5052323;28;19912;-75
2024/01/16 10:51:50;;;;;;;;;;;2.40;1.00;;;;;;5044911;28;19992;-76
2024/01/16 10:54:20;;;;;;;;;;;2.60;1.00;;;;;;5041139;28;20329;-75
2024/01/16 10:59:51;;;;;;;;;;;3.10;1.00;;;;;;5040757;28;20006;-78
2024/01/16 11:02:20;;;;;;;;;;;3.20;1.00;;;;;;5041630;28;19909;-77
2024/01/16 11:23:25;;;;;;;;;;;3.40;1.00;;;;;;5042763;28;19915;-82
2024/01/16 11:26:13;;;;;;;;;;;3.40;1.00;;;;;;5040225;28;19909;-75
2024/01/16 11:32:07;;;;;;;;;;;3.30;1.00;;;;;;5034321;28;19975;-85
2024/01/16 11:37:38;;;;;;;;;;;3.50;1.00;;;;;;5053445;28;19993;-81
2024/01/16 11:46:19;;;;;;;;;;;3.80;1.00;;;;;;5049157;28;20263;-79
2024/01/16 11:51:47;;;;;;;;;;;4.20;1.00;;;;;;5037140;28;19911;-82
2024/01/16 11:54:13;;;;;;;;;;;4.30;1.00;;;;;;5041269;28;20272;-83
2024/01/16 11:57:07;;;;;;;;;;;4.10;1.00;;;;;;5050105;28;19915;-80
2024/01/16 12:05:43;;;;;;;;;;;3.90;1.00;;;;;;5048897;28;19911;-79
2024/01/16 12:11:31;;;;;;;;;;;4.00;1.00;;;;;;5047212;28;19919;-79
2024/01/16 12:17:10;;;;;;;;;;;4.10;1.00;;;;;;5054567;28;20366;-77
2024/01/16 12:22:40;;;;;;;;;;;4.20;1.00;;;;;;5054581;28;19915;-79
2024/01/16 12:25:08;;;;;;;;;;;3.80;1.00;;;;;;5054817;28;19940;-80
2024/01/16 12:27:34;;;;;;;;;;;3.90;1.00;;;;;;5052885;28;20572;-79
2024/01/16 12:36:06;;;;;;;;;;;3.30;1.00;;;;;;5050618;28;20051;-80
2024/01/16 12:41:49;;;;;;;;;;;3.30;1.00;;;;;;5055404;28;20279;-82
2024/01/16 12:44:49;;;;;;;;;;;3.30;1.00;;;;;;5052800;28;20356;-82
2024/01/16 12:50:26;;;;;;;;;;;3.20;1.00;;;;;;5054677;28;19911;-78
2024/01/16 12:56:08;;;;;;;;;;;3.20;1.00;;;;;;5041245;28;19916;-76
2024/01/16 12:58:43;;;;;;;;;;;3.10;1.00;;;;;;5036706;28;20375;-76
2024/01/16 13:01:43;;;;;;;;;;;3.00;1.00;;;;;;5042706;28;19940;-77
2024/01/16 13:07:15;;;;;;;;;;;2.80;1.00;;;;;;5054465;28;19919;-77
2024/01/16 13:10:01;;;;;;;;;;;2.70;1.00;;;;;;5054983;28;19998;-77
2024/01/16 13:18:43;;;;;;;;;;;2.60;1.00;;;;;;5058183;28;19934;-81
2024/01/16 13:21:25;;;;;;;;;;;2.60;1.00;;;;;;5073830;28;19908;-81
2024/01/16 13:23:51;;;;;;;;;;;2.60;1.00;;;;;;5035009;28;19913;-76
2024/01/16 13:26:16;;;;;;;;;;;2.50;1.00;;;;;;5035004;28;19931;-77
2024/01/16 13:28:43;;;;;;;;;;;2.50;1.00;;;;;;5050019;28;20003;-77
2024/01/16 13:31:09;;;;;;;;;;;2.50;1.00;;;;;;5047091;28;20368;-76
2024/01/16 13:33:37;;;;;;;;;;;2.40;1.00;;;;;;5042876;28;19959;-75
2024/01/16 13:39:12;;;;;;;;;;;2.50;1.00;;;;;;5053422;28;20375;-76
2024/01/16 13:41:38;;;;;;;;;;;2.50;1.00;;;;;;5045177;28;19908;-76
2024/01/16 13:44:19;;;;;;;;;;;2.60;1.00;;;;;;5053466;28;20357;-76
2024/01/16 13:47:01;;;;;;;;;;;2.60;1.00;;;;;;5050527;28;19912;-76
2024/01/16 13:49:37;;;;;;;;;;;2.60;1.00;;;;;;5046420;28;19940;-77
2024/01/16 13:52:25;;;;;;;;;;;2.70;1.00;;;;;;5051278;28;19963;-77
2024/01/16 14:01:13;;;;;;;;;;;2.80;1.00;;;;;;5039786;28;19916;-75
2024/01/16 14:03:55;;;;;;;;;;;2.80;1.00;;;;;;5042252;28;19909;-79
2024/01/16 14:06:49;;;;;;;;;;;2.80;1.00;;;;;;5044403;28;19916;-79
2024/01/16 14:18:31;;;;;;;;;;;3.00;1.00;;;;;;5041722;28;19916;-77
2024/01/16 14:21:13;;;;;;;;;;;3.00;1.00;;;;;;5038666;28;19909;-77
2024/01/16 14:23:49;;;;;;;;;;;3.20;1.00;;;;;;5040694;28;19913;-81
2024/01/16 14:26:25;;;;;;;;;;;3.40;1.00;;;;;;5043628;28;19916;-81
2024/01/16 14:29:01;;;;;;;;;;;3.70;1.00;;;;;;5044663;28;19912;-81
2024/01/16 14:34:20;;;;;;;;;;;3.60;1.00;;;;;;5045077;28;19987;-72
2024/01/16 14:36:49;;;;;;;;;;;4.00;1.00;;;;;;5043744;28;20007;-74
2024/01/16 14:39:21;;;;;;;;;;;4.00;1.00;;;;;;5039850;28;19927;-73
2024/01/16 14:41:47;;;;;;;;;;;4.00;1.00;;;;;;5036011;28;19909;-75
2024/01/16 14:44:13;;;;;;;;;;;4.00;1.00;;;;;;5049743;28;20410;-78
2024/01/16 14:49:42;;;;;;;;;;;3.70;1.00;;;;;;5050821;28;20292;-69
2024/01/16 14:52:07;;;;;;;;;;;3.60;1.00;;;;;;5038781;28;19955;-69
2024/01/16 14:54:33;;;;;;;;;;;3.50;1.00;;;;;;5049833;28;19913;-69
2024/01/16 14:57:01;;;;;;;;;;;3.50;1.00;;;;;;5039529;28;20097;-76
2024/01/16 14:59:49;;;;;;;;;;;3.30;1.00;;;;;;5039147;28;19905;-78
2024/01/16 15:08:49;;;;;;;;;;;3.30;1.00;;;;;;5034447;28;20395;-79
2024/01/16 15:11:37;;;;;;;;;;;3.10;1.00;;;;;;5048226;28;20360;-84
2024/01/16 15:20:43;;;;;;;;;;;2.80;1.00;;;;;;5042294;28;20507;-82
2024/01/16 15:29:50;;;;;;;;;;;2.20;1.00;;;;;;5046306;28;19932;-76
2024/01/16 15:32:25;;;;;;;;;;;2.00;1.00;;;;;;5037532;28;20300;-77
2024/01/16 15:37:54;;;;;;;;;;;1.90;1.00;;;;;;5041063;28;19951;-79
2024/01/16 15:40:43;;;;;;;;;;;1.70;1.00;;;;;;5043514;28;19909;-78
2024/01/16 15:43:09;;;;;;;;;;;1.50;1.00;;;;;;5036774;28;19964;-78
2024/01/16 15:45:34;;;;;;;;;;;1.40;1.00;;;;;;5038818;28;19983;-80
2024/01/16 15:48:00;;;;;;;;;;;1.20;1.00;;;;;;5039944;28;19914;-73
2024/01/16 15:50:55;;;;;;;;;;;1.20;1.00;;;;;;5054379;28;19905;-74
2024/01/16 15:53:21;;;;;;;;;;;1.20;1.00;;;;;;5043887;28;19912;-75
2024/01/16 15:56:13;;;;;;;;;;;1.00;1.00;;;;;;5043145;28;19916;-74
2024/01/16 15:58:40;;;;;;;;;;;0.90;1.00;;;;;;5044481;28;20340;-74
2024/01/16 16:01:06;;;;;;;;;;;0.80;1.00;;;;;;5045036;28;19909;-75
2024/01/16 16:03:44;;;;;;;;;;;0.70;1.00;;;;;;5048741;28;19916;-75
2024/01/16 16:06:10;;;;;;;;;;;0.70;1.00;;;;;;5036518;28;20372;-75
2024/01/16 16:08:36;;;;;;;;;;;0.50;1.00;;;;;;5043696;28;19943;-75
2024/01/16 16:11:02;;;;;;;;;;;0.50;1.00;;;;;;5038066;28;19920;-75
2024/01/16 16:13:31;;;;;;;;;;;0.40;1.00;;;;;;5041247;28;19908;-74
2024/01/16 16:15:56;;;;;;;;;;;0.40;1.00;;;;;;5047571;28;20364;-76
2024/01/16 16:18:23;;;;;;;;;;;0.30;1.00;;;;;;5035431;28;20026;-77
2024/01/16 16:20:48;;;;;;;;;;;0.20;1.00;;;;;;5035687;28;19909;-77
2024/01/16 16:23:14;;;;;;;;;;;0.10;1.00;;;;;;5037384;28;20009;-77
2024/01/16 16:25:44;;;;;;;;;;;0.00;1.00;;;;;;5036884;28;19913;-77
2024/01/16 16:28:10;;;;;;;;;;;0.00;1.00;;;;;;5040886;28;19925;-74
2024/01/16 16:30:35;;;;;;;;;;;-0.10;1.00;;;;;;5042381;28;19909;-74
2024/01/16 16:33:02;;;;;;;;;;;-0.20;1.00;;;;;;5041710;28;20007;-74
2024/01/16 16:35:27;;;;;;;;;;;-0.30;1.00;;;;;;5044794;28;20031;-74
2024/01/16 16:37:55;;;;;;;;;;;-0.30;1.00;;;;;;5045735;28;20003;-74
2024/01/16 16:43:55;;;;;;;;;;;-0.40;1.00;;;;;;5044464;28;19916;-77
2024/01/16 16:46:28;;;;;;;;;;;-0.50;1.00;;;;;;5046562;28;19913;-78
2024/01/16 16:48:55;;;;;;;;;;;-0.50;1.00;;;;;;5049234;28;20368;-75
2024/01/16 16:51:41;;;;;;;;;;;-0.60;1.00;;;;;;5037491;28;19909;-76
2024/01/16 16:57:09;;;;;;;;;;;-0.70;1.00;;;;;;5049428;28;20375;-75
2024/01/16 17:02:38;;;;;;;;;;;-0.80;1.00;;;;;;5045501;28;20375;-77
2024/01/16 17:05:04;;;;;;;;;;;-0.80;1.00;;;;;;5037055;28;19917;-75
2024/01/16 17:07:29;;;;;;;;;;;-0.90;1.00;;;;;;5042543;28;19904;-76
2024/01/16 17:09:55;;;;;;;;;;;-0.90;1.00;;;;;;5038332;28;19943;-76
2024/01/16 17:12:21;;;;;;;;;;;-0.90;1.00;;;;;;5039028;28;19913;-76
2024/01/16 17:15:13;;;;;;;;;;;-0.90;1.00;;;;;;5042621;28;20360;-75
2024/01/16 17:17:43;;;;;;;;;;;-0.90;1.00;;;;;;5055053;28;20003;-75
2024/01/16 17:20:37;;;;;;;;;;;-0.90;1.00;;;;;;5048337;28;19916;-75
2024/01/16 17:23:03;;;;;;;;;;;-0.90;1.00;;;;;;5043902;28;19995;-75
2024/01/16 17:25:31;;;;;;;;;;;-0.90;1.00;;;;;;5036544;28;19955;-75
2024/01/16 17:28:25;;;;;;;;;;;-1.00;1.00;;;;;;5043379;28;20284;-75
2024/01/16 17:31:01;;;;;;;;;;;-1.00;1.00;;;;;;5039775;28;19992;-75
2024/01/16 17:33:49;;;;;;;;;;;-1.00;1.00;;;;;;5035151;28;19996;-75
2024/01/16 17:36:15;;;;;;;;;;;-1.00;1.00;;;;;;5045455;28;19959;-75
2024/01/16 17:38:55;;;;;;;;;;;-1.00;1.00;;;;;;5042310;28;20325;-74
2024/01/16 17:41:35;;;;;;;;;;;-1.00;1.00;;;;;;5043940;28;19915;-75
2024/01/16 17:44:19;;;;;;;;;;;-1.00;1.00;;;;;;5045936;28;19991;-75
2024/01/16 17:47:02;;;;;;;;;;;-1.10;1.00;;;;;;5037609;28;20630;-75
2024/01/16 17:49:31;;;;;;;;;;;-1.10;1.00;;;;;;5035554;28;20387;-72
2024/01/16 17:52:03;;;;;;;;;;;-1.10;1.00;;;;;;5051021;28;19924;-81
2024/01/16 17:54:29;;;;;;;;;;;-1.10;1.00;;;;;;5054441;28;19966;-79
2024/01/16 17:57:25;;;;;;;;;;;-1.20;1.00;;;;;;5035004;28;20420;-84
2024/01/16 17:59:51;;;;;;;;;;;-1.20;1.00;;;;;;5037006;28;19916;-81
2024/01/16 18:02:16;;;;;;;;;;;-1.20;1.00;;;;;;5046504;28;19912;-80
2024/01/16 18:04:55;;;;;;;;;;;-1.30;1.00;;;;;;5051769;28;19908;-82
2024/01/16 18:07:55;;;;;;;;;;;-1.30;1.00;;;;;;5044786;28;19912;-75
2024/01/16 18:10:26;;;;;;;;;;;-1.30;1.00;;;;;;5042527;28;19911;-75
2024/01/16 18:13:14;;;;;;;;;;;-1.40;1.00;;;;;;5039839;28;20291;-75
2024/01/16 18:18:51;;;;;;;;;;;-1.50;1.00;;;;;;5054079;28;19916;-78
2024/01/16 18:21:25;;;;;;;;;;;-1.50;1.00;;;;;;5050810;28;19909;-78
2024/01/16 18:24:01;;;;;;;;;;;-1.60;1.00;;;;;;5061160;28;19909;-78
2024/01/16 18:26:55;;;;;;;;;;;-1.60;1.00;;;;;;5051487;28;19915;-77
2024/01/16 18:29:44;;;;;;;;;;;-1.60;1.00;;;;;;5041711;28;19905;-75
2024/01/16 18:35:14;;;;;;;;;;;-1.60;1.00;;;;;;5049010;28;19915;-75
2024/01/16 18:37:55;;;;;;;;;;;-1.80;1.00;;;;;;5054153;28;19964;-75
2024/01/16 18:40:26;;;;;;;;;;;-1.80;1.00;;;;;;5040429;28;19905;-75
2024/01/16 18:45:54;;;;;;;;;;;-1.80;1.00;;;;;;5043404;28;20445;-75
2024/01/16 18:51:31;;;;;;;;;;;-1.90;1.00;;;;;;5036171;28;19959;-77
2024/01/16 19:00:04;;;;;;;;;;;-2.10;1.00;;;;;;5052743;28;20061;-78
2024/01/16 19:05:52;;;;;;;;;;;-2.20;1.00;;;;;;5048491;28;19950;-78
2024/01/16 19:14:23;;;;;;;;;;;-2.30;1.00;;;;;;5044051;28;19958;-77
2024/01/16 19:16:50;;;;;;;;;;;-2.30;1.00;;;;;;5054663;28;20374;-77
2024/01/16 19:19:20;;;;;;;;;;;-2.30;1.00;;;;;;5039342;28;20299;-77
2024/01/16 19:25:01;;;;;;;;;;;-2.40;1.00;;;;;;5044975;28;19957;-75
2024/01/16 19:27:47;;;;;;;;;;;-2.60;1.00;;;;;;5038718;28;19909;-75
2024/01/16 19:30:25;;;;;;;;;;;-2.60;1.00;;;;;;5050568;28;19948;-75
2024/01/16 19:35:57;;;;;;;;;;;-2.70;1.00;;;;;;5037239;28;19967;-75
2024/01/16 19:38:55;;;;;;;;;;;-2.70;1.00;;;;;;5042869;28;19905;-77
2024/01/16 19:44:24;;;;;;;;;;;-2.70;1.00;;;;;;5036841;28;19959;-76
2024/01/16 19:52:56;;;;;;;;;;;-2.80;1.00;;;;;;5049643;28;20275;-76
2024/01/16 19:58:25;;;;;;;;;;;-2.90;1.00;;;;;;5049077;28;19916;-77
2024/01/16 20:00:55;;;;;;;;;;;-2.80;1.00;;;;;;5039278;28;19909;-77
2024/01/16 20:03:55;;;;;;;;;;;-2.80;1.00;;;;;;5042703;28;19916;-77
2024/01/16 20:09:24;;;;;;;;;;;-2.80;1.00;;;;;;5041448;28;19955;-77
2024/01/16 20:11:50;;;;;;;;;;;-2.90;1.00;;;;;;5045988;28;20054;-77
2024/01/16 20:14:37;;;;;;;;;;;-2.80;1.00;;;;;;5042129;28;20403;-77
2024/01/16 20:17:07;;;;;;;;;;;-2.90;1.00;;;;;;5037006;28;19916;-77
2024/01/16 20:25:55;;;;;;;;;;;-2.90;1.00;;;;;;5036457;28;20320;-76
2024/01/16 20:28:43;;;;;;;;;;;-3.00;1.00;;;;;;5041506;28;19958;-76
2024/01/16 20:31:33;;;;;;;;;;;-2.90;1.00;;;;;;5043390;28;19931;-77
2024/01/16 20:33:59;;;;;;;;;;;-3.00;1.00;;;;;;5050238;28;19909;-77
2024/01/16 20:39:49;;;;;;;;;;;-3.10;1.00;;;;;;5056341;28;20437;-76
2024/01/16 20:48:43;;;;;;;;;;;-3.30;1.00;;;;;;5044986;28;19919;-77
2024/01/16 20:54:49;;;;;;;;;;;-3.40;1.00;;;;;;5045034;28;19919;-77
2024/01/16 20:57:25;;;;;;;;;;;-3.40;1.00;;;;;;5042177;28;20013;-77
2024/01/16 21:15:06;;;;;;;;;;;-3.50;1.00;;;;;;5044741;28;20012;-77
2024/01/16 21:29:45;;;;;;;;;;;-3.80;1.00;;;;;;5051716;28;20003;-76
2024/01/16 21:32:32;;;;;;;;;;;-3.70;1.00;;;;;;5045793;28;19912;-76
2024/01/16 21:35:14;;;;;;;;;;;-3.70;1.00;;;;;;5043090;28;19909;-76
2024/01/16 21:41:01;;;;;;;;;;;-3.70;1.00;;;;;;5043439;28;20275;-76
2024/01/16 21:46:30;;;;;;;;;;;-3.80;1.00;;;;;;5041975;28;20319;-76
2024/01/16 22:10:26;;;;;;;;;;;-4.00;1.00;;;;;;5039108;28;20032;-76
2024/01/16 22:12:51;;;;;;;;;;;-4.00;1.00;;;;;;5047262;28;19959;-76
2024/01/16 22:18:20;;;;;;;;;;;-4.00;1.00;;;;;;5034326;28;19955;-76
2024/01/16 22:20:46;;;;;;;;;;;-4.10;1.00;;;;;;5046697;28;19944;-76
2024/01/16 22:29:17;;;;;;;;;;;-4.10;1.00;;;;;;5033713;28;19931;-76
2024/01/16 22:31:43;;;;;;;;;;;-4.10;1.00;;;;;;5034742;28;20415;-77
2024/01/16 22:52:55;;;;;;;;;;;-4.20;1.00;;;;;;5043304;28;20382;-76
2024/01/16 23:01:27;;;;;;;;;;;-4.30;1.00;;;;;;5038347;28;19955;-76
2024/01/16 23:06:55;;;;;;;;;;;-4.30;1.00;;;;;;5053316;28;19919;-77
2024/01/16 23:15:27;;;;;;;;;;;-4.40;1.00;;;;;;5042949;28;20374;-76
2024/01/16 23:20:55;;;;;;;;;;;-4.40;1.00;;;;;;5043862;28;20370;-76
2024/01/16 23:26:24;;;;;;;;;;;-4.30;1.00;;;;;;5037005;28;20339;-77